sensor_id;sensor_type;location;lat;lon;timestamp;temperature;humidity
3548;DHT22;1788;49.400;11.092;2023-04-24T00:01:31;14.50;62.60
3548;DHT22;1788;49.400;11.092;2023-04-24T00:03:58;14.50;62.70
3548;DHT22;1788;49.400;11.092;2023-04-24T00:06:26;14.50;62.80
3548;DHT22;1788;49.400;11.092;2023-04-24T00:08:52;14.40;62.70
3548;DHT22;1788;49.400;11.092;2023-04-24T00:11:19;14.40;62.90
3548;DHT22;1788;49.400;11.092;2023-04-24T00:13:46;14.40;63.00
3548;DHT22;1788;49.400;11.092;2023-04-24T00:16:12;14.30;62.90
3548;DHT22;1788;49.400;11.092;2023-04-24T00:18:40;14.40;63.10
3548;DHT22;1788;49.400;11.092;2023-04-24T00:21:06;14.40;63.10
3548;DHT22;1788;49.400;11.092;2023-04-24T00:23:34;14.40;63.10
3548;DHT22;1788;49.400;11.092;2023-04-24T00:26:00;14.40;63.10
3548;DHT22;1788;49.400;11.092;2023-04-24T00:28:27;14.40;63.10
3548;DHT22;1788;49.400;11.092;2023-04-24T00:30:53;14.40;63.20
3548;DHT22;1788;49.400;11.092;2023-04-24T00:33:20;14.30;63.10
3548;DHT22;1788;49.400;11.092;2023-04-24T00:35:47;14.30;63.30
3548;DHT22;1788;49.400;11.092;2023-04-24T00:38:14;14.30;63.30
3548;DHT22;1788;49.400;11.092;2023-04-24T00:40:41;14.30;63.30
3548;DHT22;1788;49.400;11.092;2023-04-24T00:43:08;14.30;63.30
3548;DHT22;1788;49.400;11.092;2023-04-24T00:45:35;14.30;63.30
3548;DHT22;1788;49.400;11.092;2023-04-24T00:48:01;14.30;63.30
3548;DHT22;1788;49.400;11.092;2023-04-24T00:50:28;14.30;63.30
3548;DHT22;1788;49.400;11.092;2023-04-24T00:52:55;14.20;63.50
3548;DHT22;1788;49.400;11.092;2023-04-24T00:55:22;14.20;63.40
3548;DHT22;1788;49.400;11.092;2023-04-24T00:57:49;14.20;63.40
3548;DHT22;1788;49.400;11.092;2023-04-24T01:00:16;14.20;63.40
3548;DHT22;1788;49.400;11.092;2023-04-24T01:05:09;14.20;63.40
3548;DHT22;1788;49.400;11.092;2023-04-24T01:07:36;14.20;63.50
3548;DHT22;1788;49.400;11.092;2023-04-24T01:10:02;14.20;63.60
3548;DHT22;1788;49.400;11.092;2023-04-24T01:12:29;14.20;63.60
3548;DHT22;1788;49.400;11.092;2023-04-24T01:14:56;14.20;64.30
3548;DHT22;1788;49.400;11.092;2023-04-24T01:17:23;14.20;63.50
3548;DHT22;1788;49.400;11.092;2023-04-24T01:19:50;14.20;63.50
3548;DHT22;1788;49.400;11.092;2023-04-24T01:22:17;14.20;63.50
3548;DHT22;1788;49.400;11.092;2023-04-24T01:24:44;14.20;63.50
3548;DHT22;1788;49.400;11.092;2023-04-24T01:27:10;14.20;63.40
3548;DHT22;1788;49.400;11.092;2023-04-24T01:29:37;14.20;63.40
3548;DHT22;1788;49.400;11.092;2023-04-24T01:32:04;14.20;63.50
3548;DHT22;1788;49.400;11.092;2023-04-24T01:34:31;14.20;63.40
3548;DHT22;1788;49.400;11.092;2023-04-24T01:36:58;14.20;63.40
3548;DHT22;1788;49.400;11.092;2023-04-24T01:39:25;14.10;63.30
3548;DHT22;1788;49.400;11.092;2023-04-24T01:41:51;14.10;63.30
3548;DHT22;1788;49.400;11.092;2023-04-24T01:44:18;14.10;63.40
3548;DHT22;1788;49.400;11.092;2023-04-24T01:46:45;14.00;63.40
3548;DHT22;1788;49.400;11.092;2023-04-24T01:49:12;14.00;63.50
3548;DHT22;1788;49.400;11.092;2023-04-24T01:51:39;13.90;63.50
3548;DHT22;1788;49.400;11.092;2023-04-24T01:54:05;13.90;63.70
3548;DHT22;1788;49.400;11.092;2023-04-24T01:56:33;13.80;63.80
3548;DHT22;1788;49.400;11.092;2023-04-24T01:59:00;13.80;63.70
3548;DHT22;1788;49.400;11.092;2023-04-24T02:01:29;13.90;64.60
3548;DHT22;1788;49.400;11.092;2023-04-24T02:03:54;13.90;63.80
3548;DHT22;1788;49.400;11.092;2023-04-24T02:06:21;13.90;63.70
3548;DHT22;1788;49.400;11.092;2023-04-24T02:08:47;14.00;63.70
3548;DHT22;1788;49.400;11.092;2023-04-24T02:11:14;14.00;63.60
3548;DHT22;1788;49.400;11.092;2023-04-24T02:13:41;14.00;63.50
3548;DHT22;1788;49.400;11.092;2023-04-24T02:16:08;14.00;63.50
3548;DHT22;1788;49.400;11.092;2023-04-24T02:18:35;14.00;64.00
3548;DHT22;1788;49.400;11.092;2023-04-24T02:21:02;14.00;63.40
3548;DHT22;1788;49.400;11.092;2023-04-24T02:23:29;14.00;63.30
3548;DHT22;1788;49.400;11.092;2023-04-24T02:25:55;14.00;63.30
3548;DHT22;1788;49.400;11.092;2023-04-24T02:28:22;14.00;63.30
3548;DHT22;1788;49.400;11.092;2023-04-24T02:30:50;14.00;64.20
3548;DHT22;1788;49.400;11.092;2023-04-24T02:33:17;14.00;63.30
3548;DHT22;1788;49.400;11.092;2023-04-24T02:35:43;14.00;63.30
3548;DHT22;1788;49.400;11.092;2023-04-24T02:38:10;14.00;64.10
3548;DHT22;1788;49.400;11.092;2023-04-24T02:40:36;14.00;63.30
3548;DHT22;1788;49.400;11.092;2023-04-24T02:43:04;14.00;63.30
3548;DHT22;1788;49.400;11.092;2023-04-24T02:45:30;14.00;63.30
3548;DHT22;1788;49.400;11.092;2023-04-24T02:47:58;14.00;63.30
3548;DHT22;1788;49.400;11.092;2023-04-24T02:50:24;14.00;63.30
3548;DHT22;1788;49.400;11.092;2023-04-24T02:52:51;14.00;63.30
3548;DHT22;1788;49.400;11.092;2023-04-24T02:55:17;14.00;63.30
3548;DHT22;1788;49.400;11.092;2023-04-24T02:57:45;14.00;63.30
3548;DHT22;1788;49.400;11.092;2023-04-24T03:00:12;14.00;63.20
3548;DHT22;1788;49.400;11.092;2023-04-24T03:02:39;14.00;63.30
3548;DHT22;1788;49.400;11.092;2023-04-24T03:05:07;14.00;63.20
3548;DHT22;1788;49.400;11.092;2023-04-24T03:07:33;14.00;63.20
3548;DHT22;1788;49.400;11.092;2023-04-24T03:10:00;13.90;63.10
3548;DHT22;1788;49.400;11.092;2023-04-24T03:12:27;13.90;64.00
3548;DHT22;1788;49.400;11.092;2023-04-24T03:14:54;13.90;63.30
3548;DHT22;1788;49.400;11.092;2023-04-24T03:17:21;13.90;63.30
3548;DHT22;1788;49.400;11.092;2023-04-24T03:19:47;13.90;63.30
3548;DHT22;1788;49.400;11.092;2023-04-24T03:22:14;13.90;63.30
3548;DHT22;1788;49.400;11.092;2023-04-24T03:24:40;13.90;63.40
3548;DHT22;1788;49.400;11.092;2023-04-24T03:27:08;13.90;63.50
3548;DHT22;1788;49.400;11.092;2023-04-24T03:29:34;13.80;63.40
3548;DHT22;1788;49.400;11.092;2023-04-24T03:32:01;13.90;63.50
3548;DHT22;1788;49.400;11.092;2023-04-24T03:34:28;13.80;63.50
3548;DHT22;1788;49.400;11.092;2023-04-24T03:36:54;13.80;64.30
3548;DHT22;1788;49.400;11.092;2023-04-24T03:39:21;13.80;63.50
3548;DHT22;1788;49.400;11.092;2023-04-24T03:41:47;13.80;63.50
3548;DHT22;1788;49.400;11.092;2023-04-24T03:44:14;13.80;63.60
3548;DHT22;1788;49.400;11.092;2023-04-24T03:46:41;13.80;63.60
3548;DHT22;1788;49.400;11.092;2023-04-24T03:49:08;13.70;63.50
3548;DHT22;1788;49.400;11.092;2023-04-24T03:51:35;13.70;63.50
3548;DHT22;1788;49.400;11.092;2023-04-24T03:54:01;13.70;63.50
3548;DHT22;1788;49.400;11.092;2023-04-24T03:56:28;13.70;63.70
3548;DHT22;1788;49.400;11.092;2023-04-24T03:58:55;13.60;63.70
3548;DHT22;1788;49.400;11.092;2023-04-24T04:01:21;13.60;63.80
3548;DHT22;1788;49.400;11.092;2023-04-24T04:03:48;13.60;63.90
3548;DHT22;1788;49.400;11.092;2023-04-24T04:06:14;13.60;63.90
3548;DHT22;1788;49.400;11.092;2023-04-24T04:08:41;13.60;63.80
3548;DHT22;1788;49.400;11.092;2023-04-24T04:11:08;13.60;63.80
3548;DHT22;1788;49.400;11.092;2023-04-24T04:13:36;13.60;63.80
3548;DHT22;1788;49.400;11.092;2023-04-24T04:16:03;13.50;63.80
3548;DHT22;1788;49.400;11.092;2023-04-24T04:18:30;13.50;63.80
3548;DHT22;1788;49.400;11.092;2023-04-24T04:20:57;13.50;64.40
3548;DHT22;1788;49.400;11.092;2023-04-24T04:23:24;13.50;63.90
3548;DHT22;1788;49.400;11.092;2023-04-24T04:25:50;13.50;63.90
3548;DHT22;1788;49.400;11.092;2023-04-24T04:28:17;13.50;64.00
3548;DHT22;1788;49.400;11.092;2023-04-24T04:30:44;13.50;63.90
3548;DHT22;1788;49.400;11.092;2023-04-24T04:33:11;13.40;64.00
3548;DHT22;1788;49.400;11.092;2023-04-24T04:35:38;13.40;64.00
3548;DHT22;1788;49.400;11.092;2023-04-24T04:38:05;13.40;64.10
3548;DHT22;1788;49.400;11.092;2023-04-24T04:40:31;13.30;64.10
3548;DHT22;1788;49.400;11.092;2023-04-24T04:42:58;13.30;64.30
3548;DHT22;1788;49.400;11.092;2023-04-24T04:45:25;13.30;64.50
3548;DHT22;1788;49.400;11.092;2023-04-24T04:47:51;13.30;64.60
3548;DHT22;1788;49.400;11.092;2023-04-24T04:50:18;13.30;64.70
3548;DHT22;1788;49.400;11.092;2023-04-24T04:52:44;13.30;64.80
3548;DHT22;1788;49.400;11.092;2023-04-24T04:55:11;13.30;64.80
3548;DHT22;1788;49.400;11.092;2023-04-24T04:57:38;13.30;64.80
3548;DHT22;1788;49.400;11.092;2023-04-24T05:00:05;13.30;65.00
3548;DHT22;1788;49.400;11.092;2023-04-24T05:02:32;13.30;65.00
3548;DHT22;1788;49.400;11.092;2023-04-24T05:04:59;13.30;65.10
3548;DHT22;1788;49.400;11.092;2023-04-24T05:07:26;13.30;65.00
3548;DHT22;1788;49.400;11.092;2023-04-24T05:09:52;13.40;65.20
3548;DHT22;1788;49.400;11.092;2023-04-24T05:12:19;13.40;65.20
3548;DHT22;1788;49.400;11.092;2023-04-24T05:14:45;13.40;65.20
3548;DHT22;1788;49.400;11.092;2023-04-24T05:17:12;13.40;65.30
3548;DHT22;1788;49.400;11.092;2023-04-24T05:19:39;13.40;66.10
3548;DHT22;1788;49.400;11.092;2023-04-24T05:22:05;13.40;65.40
3548;DHT22;1788;49.400;11.092;2023-04-24T05:24:32;13.50;65.50
3548;DHT22;1788;49.400;11.092;2023-04-24T05:26:59;13.50;65.50
3548;DHT22;1788;49.400;11.092;2023-04-24T05:29:25;13.50;65.50
3548;DHT22;1788;49.400;11.092;2023-04-24T05:31:52;13.50;65.50
3548;DHT22;1788;49.400;11.092;2023-04-24T05:34:18;13.50;65.50
3548;DHT22;1788;49.400;11.092;2023-04-24T05:36:45;13.50;65.50
3548;DHT22;1788;49.400;11.092;2023-04-24T05:39:12;13.50;65.50
3548;DHT22;1788;49.400;11.092;2023-04-24T05:41:38;13.60;65.60
3548;DHT22;1788;49.400;11.092;2023-04-24T05:44:06;13.50;65.50
3548;DHT22;1788;49.400;11.092;2023-04-24T05:46:32;13.50;65.50
3548;DHT22;1788;49.400;11.092;2023-04-24T05:48:59;13.50;65.60
3548;DHT22;1788;49.400;11.092;2023-04-24T05:51:25;13.50;65.80
3548;DHT22;1788;49.400;11.092;2023-04-24T05:53:52;13.60;66.00
3548;DHT22;1788;49.400;11.092;2023-04-24T05:56:19;13.60;66.00
3548;DHT22;1788;49.400;11.092;2023-04-24T05:58:45;13.60;66.00
3548;DHT22;1788;49.400;11.092;2023-04-24T06:01:12;13.70;66.10
3548;DHT22;1788;49.400;11.092;2023-04-24T06:03:38;13.70;66.10
3548;DHT22;1788;49.400;11.092;2023-04-24T06:06:05;13.80;66.10
3548;DHT22;1788;49.400;11.092;2023-04-24T06:08:32;13.80;66.10
3548;DHT22;1788;49.400;11.092;2023-04-24T06:10:58;13.80;66.20
3548;DHT22;1788;49.400;11.092;2023-04-24T06:13:25;13.90;66.30
3548;DHT22;1788;49.400;11.092;2023-04-24T06:15:52;13.90;66.10
3548;DHT22;1788;49.400;11.092;2023-04-24T06:18:18;13.90;66.10
3548;DHT22;1788;49.400;11.092;2023-04-24T06:20:45;14.00;66.30
3548;DHT22;1788;49.400;11.092;2023-04-24T06:23:12;14.00;66.30
3548;DHT22;1788;49.400;11.092;2023-04-24T06:25:39;14.00;66.30
3548;DHT22;1788;49.400;11.092;2023-04-24T06:28:05;14.00;66.20
3548;DHT22;1788;49.400;11.092;2023-04-24T06:30:32;14.00;66.20
3548;DHT22;1788;49.400;11.092;2023-04-24T06:32:59;14.00;66.20
3548;DHT22;1788;49.400;11.092;2023-04-24T06:35:26;14.00;66.40
3548;DHT22;1788;49.400;11.092;2023-04-24T06:37:53;14.00;66.30
3548;DHT22;1788;49.400;11.092;2023-04-24T06:40:20;14.00;66.20
3548;DHT22;1788;49.400;11.092;2023-04-24T06:42:47;13.90;66.00
3548;DHT22;1788;49.400;11.092;2023-04-24T06:45:14;13.90;65.80
3548;DHT22;1788;49.400;11.092;2023-04-24T06:47:41;13.90;65.80
3548;DHT22;1788;49.400;11.092;2023-04-24T06:50:07;13.80;65.50
3548;DHT22;1788;49.400;11.092;2023-04-24T06:52:34;13.70;65.50
3548;DHT22;1788;49.400;11.092;2023-04-24T06:57:28;13.60;65.70
3548;DHT22;1788;49.400;11.092;2023-04-24T06:59:54;13.60;65.60
3548;DHT22;1788;49.400;11.092;2023-04-24T07:02:22;13.60;65.70
3548;DHT22;1788;49.400;11.092;2023-04-24T07:04:48;13.60;65.60
3548;DHT22;1788;49.400;11.092;2023-04-24T07:07:15;13.60;65.60
3548;DHT22;1788;49.400;11.092;2023-04-24T07:09:42;13.70;65.70
3548;DHT22;1788;49.400;11.092;2023-04-24T07:12:08;13.70;65.50
3548;DHT22;1788;49.400;11.092;2023-04-24T07:14:35;13.80;65.30
3548;DHT22;1788;49.400;11.092;2023-04-24T07:17:03;13.80;65.00
3548;DHT22;1788;49.400;11.092;2023-04-24T07:19:29;13.90;64.70
3548;DHT22;1788;49.400;11.092;2023-04-24T07:21:56;13.90;64.40
3548;DHT22;1788;49.400;11.092;2023-04-24T07:24:24;13.90;64.00
3548;DHT22;1788;49.400;11.092;2023-04-24T07:26:51;13.90;63.50
3548;DHT22;1788;49.400;11.092;2023-04-24T07:29:18;14.00;63.60
3548;DHT22;1788;49.400;11.092;2023-04-24T07:31:44;14.00;63.20
3548;DHT22;1788;49.400;11.092;2023-04-24T07:34:12;13.90;62.30
3548;DHT22;1788;49.400;11.092;2023-04-24T07:36:38;13.90;62.20
3548;DHT22;1788;49.400;11.092;2023-04-24T07:39:06;13.90;61.50
3548;DHT22;1788;49.400;11.092;2023-04-24T07:41:32;13.90;61.40
3548;DHT22;1788;49.400;11.092;2023-04-24T07:44:00;13.80;60.80
3548;DHT22;1788;49.400;11.092;2023-04-24T07:46:26;13.80;60.70
3548;DHT22;1788;49.400;11.092;2023-04-24T07:48:53;13.80;60.40
3548;DHT22;1788;49.400;11.092;2023-04-24T07:51:20;13.80;60.20
3548;DHT22;1788;49.400;11.092;2023-04-24T07:53:46;13.80;60.00
3548;DHT22;1788;49.400;11.092;2023-04-24T07:56:14;13.90;59.80
3548;DHT22;1788;49.400;11.092;2023-04-24T07:58:41;13.80;59.70
3548;DHT22;1788;49.400;11.092;2023-04-24T08:01:08;13.90;59.60
3548;DHT22;1788;49.400;11.092;2023-04-24T08:03:34;14.00;59.40
3548;DHT22;1788;49.400;11.092;2023-04-24T08:06:02;14.10;59.10
3548;DHT22;1788;49.400;11.092;2023-04-24T08:08:28;14.10;59.10
3548;DHT22;1788;49.400;11.092;2023-04-24T08:10:55;14.20;58.80
3548;DHT22;1788;49.400;11.092;2023-04-24T08:13:21;14.30;58.70
3548;DHT22;1788;49.400;11.092;2023-04-24T08:15:48;14.40;58.30
3548;DHT22;1788;49.400;11.092;2023-04-24T08:18:15;14.40;57.80
3548;DHT22;1788;49.400;11.092;2023-04-24T08:20:42;14.30;57.80
3548;DHT22;1788;49.400;11.092;2023-04-24T08:23:09;14.40;57.70
3548;DHT22;1788;49.400;11.092;2023-04-24T08:25:36;14.50;57.40
3548;DHT22;1788;49.400;11.092;2023-04-24T08:28:05;14.50;57.50
3548;DHT22;1788;49.400;11.092;2023-04-24T08:30:30;14.50;57.20
3548;DHT22;1788;49.400;11.092;2023-04-24T08:32:56;14.50;57.00
3548;DHT22;1788;49.400;11.092;2023-04-24T08:35:23;14.50;56.70
3548;DHT22;1788;49.400;11.092;2023-04-24T08:37:51;14.40;57.00
3548;DHT22;1788;49.400;11.092;2023-04-24T08:40:17;14.30;56.40
3548;DHT22;1788;49.400;11.092;2023-04-24T08:42:44;14.30;56.40
3548;DHT22;1788;49.400;11.092;2023-04-24T08:45:12;14.30;56.30
3548;DHT22;1788;49.400;11.092;2023-04-24T08:47:40;14.50;56.50
3548;DHT22;1788;49.400;11.092;2023-04-24T08:50:06;14.60;56.30
3548;DHT22;1788;49.400;11.092;2023-04-24T08:52:32;14.80;56.10
3548;DHT22;1788;49.400;11.092;2023-04-24T08:54:59;14.80;55.80
3548;DHT22;1788;49.400;11.092;2023-04-24T08:57:25;14.90;55.60
3548;DHT22;1788;49.400;11.092;2023-04-24T08:59:52;14.90;55.40
3548;DHT22;1788;49.400;11.092;2023-04-24T09:02:19;14.90;55.30
3548;DHT22;1788;49.400;11.092;2023-04-24T09:04:46;14.90;55.30
3548;DHT22;1788;49.400;11.092;2023-04-24T09:07:14;15.00;55.40
3548;DHT22;1788;49.400;11.092;2023-04-24T09:09:40;15.10;55.30
3548;DHT22;1788;49.400;11.092;2023-04-24T09:12:07;15.10;55.20
3548;DHT22;1788;49.400;11.092;2023-04-24T09:14:34;15.20;55.00
3548;DHT22;1788;49.400;11.092;2023-04-24T09:17:00;15.20;54.70
3548;DHT22;1788;49.400;11.092;2023-04-24T09:19:27;15.20;54.40
3548;DHT22;1788;49.400;11.092;2023-04-24T09:21:54;15.20;54.40
3548;DHT22;1788;49.400;11.092;2023-04-24T09:24:21;15.20;54.40
3548;DHT22;1788;49.400;11.092;2023-04-24T09:26:48;15.20;54.20
3548;DHT22;1788;49.400;11.092;2023-04-24T09:31:41;15.30;53.90
3548;DHT22;1788;49.400;11.092;2023-04-24T09:34:09;15.20;53.80
3548;DHT22;1788;49.400;11.092;2023-04-24T09:36:36;15.20;53.70
3548;DHT22;1788;49.400;11.092;2023-04-24T09:39:04;15.00;53.50
3548;DHT22;1788;49.400;11.092;2023-04-24T09:41:30;15.00;53.40
3548;DHT22;1788;49.400;11.092;2023-04-24T09:48:52;14.70;53.30
3548;DHT22;1788;49.400;11.092;2023-04-24T09:51:20;14.80;54.10
3548;DHT22;1788;49.400;11.092;2023-04-24T09:53:46;14.70;53.50
3548;DHT22;1788;49.400;11.092;2023-04-24T09:56:15;14.90;53.30
3548;DHT22;1788;49.400;11.092;2023-04-24T09:58:41;14.90;53.30
3548;DHT22;1788;49.400;11.092;2023-04-24T10:01:08;14.90;53.20
3548;DHT22;1788;49.400;11.092;2023-04-24T10:03:35;14.90;53.00
3548;DHT22;1788;49.400;11.092;2023-04-24T10:06:02;14.90;52.80
3548;DHT22;1788;49.400;11.092;2023-04-24T10:10:56;14.90;52.60
3548;DHT22;1788;49.400;11.092;2023-04-24T10:13:24;14.90;52.50
3548;DHT22;1788;49.400;11.092;2023-04-24T10:15:50;14.90;52.40
3548;DHT22;1788;49.400;11.092;2023-04-24T10:18:18;15.00;52.30
3548;DHT22;1788;49.400;11.092;2023-04-24T10:20:45;15.00;52.10
3548;DHT22;1788;49.400;11.092;2023-04-24T10:23:11;15.10;52.10
3548;DHT22;1788;49.400;11.092;2023-04-24T10:25:38;15.20;52.00
3548;DHT22;1788;49.400;11.092;2023-04-24T10:28:05;15.30;51.30
3548;DHT22;1788;49.400;11.092;2023-04-24T10:30:33;15.30;51.20
3548;DHT22;1788;49.400;11.092;2023-04-24T10:33:00;15.30;50.90
3548;DHT22;1788;49.400;11.092;2023-04-24T10:35:27;15.20;50.50
3548;DHT22;1788;49.400;11.092;2023-04-24T10:42:48;15.50;50.20
3548;DHT22;1788;49.400;11.092;2023-04-24T10:47:42;16.00;49.40
3548;DHT22;1788;49.400;11.092;2023-04-24T10:55:03;16.80;47.80
3548;DHT22;1788;49.400;11.092;2023-04-24T10:57:29;16.80;47.80
3548;DHT22;1788;49.400;11.092;2023-04-24T11:02:35;16.60;47.80
3548;DHT22;1788;49.400;11.092;2023-04-24T11:04:49;16.50;48.10
3548;DHT22;1788;49.400;11.092;2023-04-24T11:07:17;16.00;48.40
3548;DHT22;1788;49.400;11.092;2023-04-24T11:09:44;16.00;48.30
3548;DHT22;1788;49.400;11.092;2023-04-24T11:12:11;15.70;48.50
3548;DHT22;1788;49.400;11.092;2023-04-24T11:17:05;15.50;48.50
3548;DHT22;1788;49.400;11.092;2023-04-24T11:19:31;15.40;48.50
3548;DHT22;1788;49.400;11.092;2023-04-24T11:29:20;15.10;48.50
3548;DHT22;1788;49.400;11.092;2023-04-24T11:31:46;15.10;48.40
3548;DHT22;1788;49.400;11.092;2023-04-24T11:34:13;15.10;48.40
3548;DHT22;1788;49.400;11.092;2023-04-24T11:36:39;15.20;48.40
3548;DHT22;1788;49.400;11.092;2023-04-24T11:39:05;15.30;48.30
3548;DHT22;1788;49.400;11.092;2023-04-24T11:41:33;15.80;47.90
3548;DHT22;1788;49.400;11.092;2023-04-24T11:43:59;15.80;47.90
3548;DHT22;1788;49.400;11.092;2023-04-24T11:46:27;16.40;47.70
3548;DHT22;1788;49.400;11.092;2023-04-24T11:48:53;16.30;47.20
3548;DHT22;1788;49.400;11.092;2023-04-24T11:51:20;16.40;46.90
3548;DHT22;1788;49.400;11.092;2023-04-24T11:53:47;16.40;46.90
3548;DHT22;1788;49.400;11.092;2023-04-24T11:56:16;16.30;46.70
3548;DHT22;1788;49.400;11.092;2023-04-24T11:58:41;16.10;46.60
3548;DHT22;1788;49.400;11.092;2023-04-24T12:01:07;16.10;46.60
3548;DHT22;1788;49.400;11.092;2023-04-24T12:03:35;15.80;47.10
3548;DHT22;1788;49.400;11.092;2023-04-24T12:08:28;15.70;46.60
3548;DHT22;1788;49.400;11.092;2023-04-24T12:10:55;15.50;46.40
3548;DHT22;1788;49.400;11.092;2023-04-24T12:13:22;15.40;46.40
3548;DHT22;1788;49.400;11.092;2023-04-24T12:15:50;15.30;46.40
3548;DHT22;1788;49.400;11.092;2023-04-24T12:18:16;15.30;46.40
3548;DHT22;1788;49.400;11.092;2023-04-24T12:20:43;15.50;46.40
3548;DHT22;1788;49.400;11.092;2023-04-24T12:23:10;15.50;46.40
3548;DHT22;1788;49.400;11.092;2023-04-24T12:25:38;15.60;46.40
3548;DHT22;1788;49.400;11.092;2023-04-24T12:28:08;15.70;46.20
3548;DHT22;1788;49.400;11.092;2023-04-24T12:30:32;15.90;46.10
3548;DHT22;1788;49.400;11.092;2023-04-24T12:32:59;16.00;46.10
3548;DHT22;1788;49.400;11.092;2023-04-24T12:37:53;16.00;45.90
3548;DHT22;1788;49.400;11.092;2023-04-24T12:40:20;16.00;46.00
3548;DHT22;1788;49.400;11.092;2023-04-24T12:42:48;16.00;46.00
3548;DHT22;1788;49.400;11.092;2023-04-24T12:45:15;15.90;46.10
3548;DHT22;1788;49.400;11.092;2023-04-24T12:47:42;15.90;45.90
3548;DHT22;1788;49.400;11.092;2023-04-24T12:50:09;15.80;45.90
3548;DHT22;1788;49.400;11.092;2023-04-24T12:52:35;15.80;45.60
3548;DHT22;1788;49.400;11.092;2023-04-24T12:55:01;15.80;45.60
3548;DHT22;1788;49.400;11.092;2023-04-24T12:57:29;15.70;45.40
3548;DHT22;1788;49.400;11.092;2023-04-24T12:59:56;15.70;45.30
3548;DHT22;1788;49.400;11.092;2023-04-24T13:02:22;15.70;45.40
3548;DHT22;1788;49.400;11.092;2023-04-24T13:04:49;15.70;45.30
3548;DHT22;1788;49.400;11.092;2023-04-24T13:07:15;15.80;45.30
3548;DHT22;1788;49.400;11.092;2023-04-24T13:09:44;16.20;45.10
3548;DHT22;1788;49.400;11.092;2023-04-24T13:12:10;16.20;45.10
3548;DHT22;1788;49.400;11.092;2023-04-24T13:14:37;16.30;44.90
3548;DHT22;1788;49.400;11.092;2023-04-24T13:17:03;16.40;44.90
3548;DHT22;1788;49.400;11.092;2023-04-24T13:19:34;16.50;44.90
3548;DHT22;1788;49.400;11.092;2023-04-24T13:21:57;16.50;44.80
3548;DHT22;1788;49.400;11.092;2023-04-24T13:24:23;16.50;44.80
3548;DHT22;1788;49.400;11.092;2023-04-24T13:26:50;16.50;44.90
3548;DHT22;1788;49.400;11.092;2023-04-24T13:29:17;16.30;45.10
3548;DHT22;1788;49.400;11.092;2023-04-24T13:31:44;16.30;45.10
3548;DHT22;1788;49.400;11.092;2023-04-24T13:34:12;16.00;45.00
3548;DHT22;1788;49.400;11.092;2023-04-24T13:36:38;16.00;45.00
3548;DHT22;1788;49.400;11.092;2023-04-24T13:39:05;15.80;45.00
3548;DHT22;1788;49.400;11.092;2023-04-24T13:41:32;15.70;45.10
3548;DHT22;1788;49.400;11.092;2023-04-24T13:43:59;15.60;45.40
3548;DHT22;1788;49.400;11.092;2023-04-24T13:46:25;15.50;45.30
3548;DHT22;1788;49.400;11.092;2023-04-24T13:48:53;15.40;45.50
3548;DHT22;1788;49.400;11.092;2023-04-24T13:51:20;15.40;45.40
3548;DHT22;1788;49.400;11.092;2023-04-24T13:53:47;15.10;46.00
3548;DHT22;1788;49.400;11.092;2023-04-24T13:56:14;15.00;45.50
3548;DHT22;1788;49.400;11.092;2023-04-24T13:58:42;14.70;45.70
3548;DHT22;1788;49.400;11.092;2023-04-24T14:01:09;14.70;45.70
3548;DHT22;1788;49.400;11.092;2023-04-24T14:03:37;14.60;45.90
3548;DHT22;1788;49.400;11.092;2023-04-24T14:06:03;14.50;46.20
3548;DHT22;1788;49.400;11.092;2023-04-24T14:08:29;14.50;46.20
3548;DHT22;1788;49.400;11.092;2023-04-24T14:10:57;14.50;46.40
3548;DHT22;1788;49.400;11.092;2023-04-24T14:13:23;14.60;46.40
3548;DHT22;1788;49.400;11.092;2023-04-24T14:15:49;14.80;46.50
3548;DHT22;1788;49.400;11.092;2023-04-24T14:18:17;15.90;46.10
3548;DHT22;1788;49.400;11.092;2023-04-24T14:20:43;15.90;45.90
3548;DHT22;1788;49.400;11.092;2023-04-24T14:23:11;16.30;45.20
3548;DHT22;1788;49.400;11.092;2023-04-24T14:25:37;16.90;44.80
3548;DHT22;1788;49.400;11.092;2023-04-24T14:28:05;17.10;43.90
3548;DHT22;1788;49.400;11.092;2023-04-24T14:30:31;17.00;43.80
3548;DHT22;1788;49.400;11.092;2023-04-24T14:32:59;17.00;44.10
3548;DHT22;1788;49.400;11.092;2023-04-24T14:35:25;17.00;44.10
3548;DHT22;1788;49.400;11.092;2023-04-24T14:37:54;16.60;44.50
3548;DHT22;1788;49.400;11.092;2023-04-24T14:40:20;16.60;44.40
3548;DHT22;1788;49.400;11.092;2023-04-24T14:42:47;16.40;44.60
3548;DHT22;1788;49.400;11.092;2023-04-24T14:45:14;15.90;45.00
3548;DHT22;1788;49.400;11.092;2023-04-24T14:47:42;15.90;45.00
3548;DHT22;1788;49.400;11.092;2023-04-24T14:50:08;15.70;45.30
3548;DHT22;1788;49.400;11.092;2023-04-24T14:52:35;15.50;45.50
3548;DHT22;1788;49.400;11.092;2023-04-24T14:55:02;15.20;46.10
3548;DHT22;1788;49.400;11.092;2023-04-24T14:57:29;15.20;46.10
3548;DHT22;1788;49.400;11.092;2023-04-24T14:59:55;15.10;46.30
3548;DHT22;1788;49.400;11.092;2023-04-24T15:02:22;15.00;46.40
3548;DHT22;1788;49.400;11.092;2023-04-24T15:04:49;14.80;46.40
3548;DHT22;1788;49.400;11.092;2023-04-24T15:07:16;14.80;46.40
3548;DHT22;1788;49.400;11.092;2023-04-24T15:09:43;14.80;46.40
3548;DHT22;1788;49.400;11.092;2023-04-24T15:12:09;14.90;46.60
3548;DHT22;1788;49.400;11.092;2023-04-24T15:14:36;15.00;46.70
3548;DHT22;1788;49.400;11.092;2023-04-24T15:17:02;15.30;46.70
3548;DHT22;1788;49.400;11.092;2023-04-24T15:19:29;15.50;46.70
3548;DHT22;1788;49.400;11.092;2023-04-24T15:21:56;15.70;46.60
3548;DHT22;1788;49.400;11.092;2023-04-24T15:24:22;15.90;46.60
3548;DHT22;1788;49.400;11.092;2023-04-24T15:26:50;16.10;46.40
3548;DHT22;1788;49.400;11.092;2023-04-24T15:29:16;16.10;46.40
3548;DHT22;1788;49.400;11.092;2023-04-24T15:31:44;16.10;46.20
3548;DHT22;1788;49.400;11.092;2023-04-24T15:34:10;16.10;46.20
3548;DHT22;1788;49.400;11.092;2023-04-24T15:36:38;16.20;46.10
3548;DHT22;1788;49.400;11.092;2023-04-24T15:39:04;16.20;46.20
3548;DHT22;1788;49.400;11.092;2023-04-24T15:41:31;16.20;46.20
3548;DHT22;1788;49.400;11.092;2023-04-24T15:43:58;16.20;46.30
3548;DHT22;1788;49.400;11.092;2023-04-24T15:46:24;16.20;46.70
3548;DHT22;1788;49.400;11.092;2023-04-24T15:48:52;16.10;46.40
3548;DHT22;1788;49.400;11.092;2023-04-24T15:51:19;16.10;46.40
3548;DHT22;1788;49.400;11.092;2023-04-24T15:53:45;15.90;46.40
3548;DHT22;1788;49.400;11.092;2023-04-24T15:56:12;15.80;46.50
3548;DHT22;1788;49.400;11.092;2023-04-24T15:58:39;15.60;46.70
3548;DHT22;1788;49.400;11.092;2023-04-24T16:01:05;15.40;46.80
3548;DHT22;1788;49.400;11.092;2023-04-24T16:03:32;15.30;47.00
3548;DHT22;1788;49.400;11.092;2023-04-24T16:05:59;15.10;47.30
3548;DHT22;1788;49.400;11.092;2023-04-24T16:08:26;15.10;47.20
3548;DHT22;1788;49.400;11.092;2023-04-24T16:10:53;15.00;47.40
3548;DHT22;1788;49.400;11.092;2023-04-24T16:13:20;14.90;47.40
3548;DHT22;1788;49.400;11.092;2023-04-24T16:15:46;14.90;47.50
3548;DHT22;1788;49.400;11.092;2023-04-24T16:18:13;14.90;47.50
3548;DHT22;1788;49.400;11.092;2023-04-24T16:20:41;14.70;47.30
3548;DHT22;1788;49.400;11.092;2023-04-24T16:23:09;14.70;47.30
3548;DHT22;1788;49.400;11.092;2023-04-24T16:25:36;14.70;47.30